createdAt,value
2018-12-01T00:01:25.766Z,95473.56
2018-12-01T00:03:52.672Z,95470.38
2018-12-01T00:06:19.625Z,95469.89
2018-12-01T00:08:46.537Z,95473.79
2018-12-01T00:11:13.458Z,95468.09
2018-12-01T00:13:40.364Z,95472.05
2018-12-01T00:16:07.293Z,95475.91
2018-12-01T00:18:34.198Z,95483.09
2018-12-01T00:21:01.149Z,95478.52
2018-12-01T00:23:28.055Z,95482.02
2018-12-01T00:25:54.966Z,95475.50
2018-12-01T00:28:21.953Z,95483.04
2018-12-01T00:30:48.876Z,95473.27
2018-12-01T00:33:15.814Z,95476.71
2018-12-01T00:35:42.761Z,95472.53
2018-12-01T00:38:09.676Z,95472.59
2018-12-01T00:40:36.591Z,95470.23
2018-12-01T00:43:03.503Z,95470.75
2018-12-01T00:45:30.445Z,95467.20
2018-12-01T00:47:57.385Z,95467.08
2018-12-01T00:50:24.310Z,95470.34
2018-12-01T00:52:51.254Z,95465.85
2018-12-01T00:55:18.213Z,95469.23
2018-12-01T00:57:45.163Z,95464.84
2018-12-01T01:00:12.171Z,95463.05
2018-12-01T01:02:39.152Z,95468.63
2018-12-01T01:05:06.061Z,95468.41
2018-12-01T01:07:32.964Z,95464.25
2018-12-01T01:09:59.911Z,95460.61
2018-12-01T01:12:26.853Z,95467.83
2018-12-01T01:14:53.800Z,95463.30
2018-12-01T01:17:20.703Z,95465.85
2018-12-01T01:19:47.659Z,95454.94
2018-12-01T01:22:14.559Z,95448.41
2018-12-01T01:24:41.477Z,95447.00
2018-12-01T01:27:08.386Z,95433.28
2018-12-01T01:29:35.304Z,95432.05
2018-12-01T01:32:02.275Z,95418.38
2018-12-01T01:34:41.392Z,95417.98
2018-12-01T01:37:08.346Z,95413.80
2018-12-01T01:39:35.262Z,95406.47
2018-12-01T01:42:02.179Z,95406.47
2018-12-01T01:44:29.140Z,95422.63
2018-12-01T01:46:56.053Z,95429.78
2018-12-01T01:49:22.957Z,95419.02
2018-12-01T01:51:49.881Z,95403.32
2018-12-01T01:54:16.835Z,95380.69
2018-12-01T01:56:43.742Z,95395.23
2018-12-01T01:59:10.649Z,95407.47
2018-12-01T02:01:37.565Z,95392.55
2018-12-01T02:04:04.477Z,95392.55
2018-12-01T02:06:31.386Z,95392.86
2018-12-01T02:08:58.301Z,95386.28
2018-12-01T02:11:25.212Z,95383.18
2018-12-01T02:13:52.127Z,95387.77
2018-12-01T02:16:19.045Z,95395.50
2018-12-01T02:18:46.001Z,95398.19
2018-12-01T02:21:12.923Z,95392.80
2018-12-01T02:23:39.845Z,95392.27
2018-12-01T02:26:06.753Z,95387.65
2018-12-01T02:28:33.681Z,95386.30
2018-12-01T02:31:00.586Z,95392.89
2018-12-01T02:33:27.502Z,95392.34
2018-12-01T02:35:54.429Z,95395.72
2018-12-01T02:38:21.339Z,95397.05
2018-12-01T02:40:48.258Z,95391.66
2018-12-01T02:43:15.169Z,95390.68
2018-12-01T02:45:42.071Z,95390.14
2018-12-01T02:48:08.995Z,95395.30
2018-12-01T02:50:35.903Z,95403.20
2018-12-01T02:53:02.804Z,95406.69
2018-12-01T02:55:29.720Z,95409.25
2018-12-01T02:57:56.620Z,95419.36
2018-12-01T03:00:23.544Z,95412.22
2018-12-01T03:02:50.474Z,95418.02
2018-12-01T03:05:17.380Z,95426.27
2018-12-01T03:07:44.297Z,95423.39
2018-12-01T03:10:11.199Z,95427.95
2018-12-01T03:12:38.113Z,95417.47
2018-12-01T03:15:05.045Z,95422.22
2018-12-01T03:17:31.963Z,95423.66
2018-12-01T03:19:58.888Z,95417.78
2018-12-01T03:22:25.798Z,95416.92
2018-12-01T03:24:52.701Z,95412.22
2018-12-01T03:27:19.624Z,95406.69
2018-12-01T03:29:46.541Z,95409.39
2018-12-01T03:32:13.455Z,95410.33
2018-12-01T03:34:40.375Z,95411.28
2018-12-01T03:37:07.315Z,95408.44
2018-12-01T03:39:34.212Z,95404.55
2018-12-01T03:42:01.125Z,95406.15
2018-12-01T03:44:28.040Z,95403.05
2018-12-01T03:46:54.960Z,95409.70
2018-12-01T03:49:21.916Z,95404.55
2018-12-01T03:51:48.828Z,95405.75
2018-12-01T03:54:15.746Z,95408.58
2018-12-01T03:56:42.648Z,95411.14
2018-12-01T03:59:09.570Z,95410.99
2018-12-01T04:01:36.503Z,95417.33
2018-12-01T04:04:03.405Z,95427.70
2018-12-01T04:06:30.338Z,95422.31
2018-12-01T04:08:57.239Z,95427.37
2018-12-01T04:11:24.157Z,95426.44
2018-12-01T04:13:51.085Z,95425.41
2018-12-01T04:16:17.998Z,95426.03
2018-12-01T04:18:44.921Z,95428.03
2018-12-01T04:21:11.894Z,95420.91
2018-12-01T04:23:38.794Z,95426.83
2018-12-01T04:26:05.704Z,95430.33
2018-12-01T04:28:32.615Z,95422.11
2018-12-01T04:30:59.528Z,95432.08
2018-12-01T04:33:26.449Z,95425.74
2018-12-01T04:35:53.373Z,95422.25
2018-12-01T04:38:20.286Z,95421.16
2018-12-01T04:40:47.197Z,95428.44
2018-12-01T04:43:14.130Z,95433.02
2018-12-01T04:45:41.035Z,95437.46
2018-12-01T04:48:07.969Z,95439.75
2018-12-01T04:50:34.893Z,95439.35
2018-12-01T04:53:01.803Z,95444.73
2018-12-01T04:55:28.733Z,95443.80
2018-12-01T04:57:55.656Z,95440.95
2018-12-01T05:00:22.563Z,95442.98
2018-12-01T05:02:49.502Z,95452.27
2018-12-01T05:05:16.425Z,95455.66
2018-12-01T05:07:43.359Z,95455.11
2018-12-01T05:10:10.286Z,95467.23
2018-12-01T05:12:37.219Z,95471.98
2018-12-01T05:15:04.447Z,95478.95
2018-12-01T05:17:31.069Z,95474.50
2018-12-01T05:19:57.985Z,95477.59
2018-12-01T05:22:24.920Z,95483.25
2018-12-01T05:24:51.835Z,95476.83
2018-12-01T05:27:18.768Z,95485.28
2018-12-01T05:29:45.692Z,95483.56
2018-12-01T05:32:12.610Z,95498.11
2018-12-01T05:34:39.543Z,95498.92
2018-12-01T05:37:06.462Z,95502.15
2018-12-01T05:39:33.389Z,95501.44
2018-12-01T05:42:00.375Z,95502.41
2018-12-01T05:44:27.291Z,95507.88
2018-12-01T05:46:55.244Z,95513.13
2018-12-01T05:49:22.191Z,95516.59
2018-12-01T05:51:49.184Z,95513.36
2018-12-01T05:54:16.116Z,95513.13
2018-12-01T05:56:43.039Z,95515.82
2018-12-01T05:59:09.951Z,95513.13
2018-12-01T06:01:36.888Z,95510.72
2018-12-01T06:04:03.802Z,95516.77
2018-12-01T06:06:30.747Z,95517.31
2018-12-01T06:08:57.672Z,95519.69
2018-12-01T06:11:24.595Z,95521.48
2018-12-01T06:13:51.530Z,95521.44
2018-12-01T06:16:18.453Z,95528.69
2018-12-01T06:18:45.378Z,95529.13
2018-12-01T06:21:12.308Z,95526.31
2018-12-01T06:23:39.225Z,95530.64
2018-12-01T06:26:06.505Z,95526.69
2018-12-01T06:28:33.431Z,95524.74
2018-12-01T06:31:00.356Z,95524.86
2018-12-01T06:33:27.292Z,95525.75
2018-12-01T06:35:54.219Z,95522.54
2018-12-01T06:38:21.148Z,95523.97
2018-12-01T06:40:48.082Z,95526.18
2018-12-01T06:43:15.050Z,95520.67
2018-12-01T06:45:41.983Z,95528.27
2018-12-01T06:48:08.910Z,95527.06
2018-12-01T06:50:35.865Z,95522.94
2018-12-01T06:53:02.794Z,95521.05
2018-12-01T06:55:29.713Z,95523.97
2018-12-01T06:57:56.624Z,95524.97
2018-12-01T07:00:23.560Z,95523.16
2018-12-01T07:02:50.472Z,95529.16
2018-12-01T07:05:17.396Z,95528.83
2018-12-01T07:07:44.323Z,95516.22
2018-12-01T07:10:11.238Z,95520.42
2018-12-01T07:12:38.154Z,95513.07
2018-12-01T07:15:05.081Z,95521.28
2018-12-01T07:17:32.012Z,95532.91
2018-12-01T07:19:58.946Z,95534.23
2018-12-01T07:22:25.881Z,95534.61
2018-12-01T07:24:52.793Z,95536.06
2018-12-01T07:27:19.727Z,95537.46
2018-12-01T07:29:46.661Z,95546.00
2018-12-01T07:32:13.583Z,95542.17
2018-12-01T07:34:40.508Z,95544.26
2018-12-01T07:37:07.433Z,95545.41
2018-12-01T07:39:34.349Z,95541.36
2018-12-01T07:42:01.282Z,95547.78
2018-12-01T07:44:28.207Z,95548.40
2018-12-01T07:46:55.118Z,95546.34
2018-12-01T07:49:22.092Z,95551.46
2018-12-01T07:51:49.014Z,95552.62
2018-12-01T07:54:15.934Z,95555.67
2018-12-01T07:56:42.867Z,95553.82
2018-12-01T07:59:09.774Z,95551.83
2018-12-01T08:01:36.706Z,95553.62
2018-12-01T08:04:03.626Z,95550.61
2018-12-01T08:06:30.540Z,95555.70
2018-12-01T08:08:57.462Z,95558.66
2018-12-01T08:11:24.372Z,95560.53
2018-12-01T08:13:51.311Z,95574.13
2018-12-01T08:16:18.233Z,95565.17
2018-12-01T08:18:45.191Z,95559.90
2018-12-01T08:21:12.113Z,95563.52
2018-12-01T08:23:39.032Z,95556.31
2018-12-01T08:26:05.968Z,95559.73
2018-12-01T08:28:32.905Z,95557.63
2018-12-01T08:30:59.822Z,95554.73
2018-12-01T08:33:26.747Z,95554.81
2018-12-01T08:35:53.680Z,95552.72
2018-12-01T08:38:20.584Z,95556.12
2018-12-01T08:40:47.545Z,95551.06
2018-12-01T08:43:14.451Z,95555.62
2018-12-01T08:45:41.373Z,95550.42
2018-12-01T08:48:08.294Z,95554.22
2018-12-01T08:50:35.211Z,95549.30
2018-12-01T08:53:02.140Z,95549.02
2018-12-01T08:55:29.076Z,95548.37
2018-12-01T08:57:56.044Z,95548.48
2018-12-01T09:00:22.980Z,95554.97
2018-12-01T09:02:49.909Z,95556.29
2018-12-01T09:05:16.833Z,95552.42
2018-12-01T09:07:43.762Z,95553.39
2018-12-01T09:10:10.682Z,95555.12
2018-12-01T09:12:37.624Z,95550.67
2018-12-01T09:15:04.552Z,95542.02
2018-12-01T09:17:31.524Z,95538.19
2018-12-01T09:19:58.460Z,95540.52
2018-12-01T09:22:25.423Z,95535.27
2018-12-01T09:24:52.348Z,95537.08
2018-12-01T09:27:22.520Z,95531.19
2018-12-01T09:29:46.202Z,95537.70
2018-12-01T09:32:13.129Z,95538.22
2018-12-01T09:34:40.064Z,95530.92
2018-12-01T09:37:06.986Z,95528.41
2018-12-01T09:39:33.912Z,95531.01
2018-12-01T09:42:00.838Z,95536.25
2018-12-01T09:44:27.808Z,95528.73
2018-12-01T09:46:54.783Z,95526.59
2018-12-01T09:49:21.701Z,95514.80
2018-12-01T09:51:48.645Z,95518.35
2018-12-01T09:54:15.551Z,95513.80
2018-12-01T09:56:42.530Z,95511.80
2018-12-01T09:59:09.436Z,95513.26
2018-12-01T10:01:36.425Z,95501.41
2018-12-01T10:04:03.348Z,95503.02
2018-12-01T10:06:30.307Z,95500.84
2018-12-01T10:08:57.231Z,95497.98
2018-12-01T10:11:24.139Z,95496.66
2018-12-01T10:13:51.054Z,95496.22
2018-12-01T10:16:17.970Z,95497.05
2018-12-01T10:18:44.888Z,95501.14
2018-12-01T10:21:11.818Z,95506.05
2018-12-01T10:23:38.789Z,95497.27
2018-12-01T10:26:05.695Z,95491.41
2018-12-01T10:28:32.632Z,95495.87
2018-12-01T10:30:59.545Z,95483.41
2018-12-01T10:33:26.466Z,95488.65
2018-12-01T10:35:53.385Z,95481.67
2018-12-01T10:38:20.295Z,95480.59
2018-12-01T10:40:47.215Z,95478.97
2018-12-01T10:43:14.138Z,95484.05
2018-12-01T10:45:41.046Z,95482.22
2018-12-01T10:48:07.975Z,95480.53
2018-12-01T10:50:34.918Z,95479.88
2018-12-01T10:53:01.822Z,95487.33
2018-12-01T10:55:28.737Z,95485.36
2018-12-01T10:57:55.647Z,95493.27
2018-12-01T11:00:22.609Z,95490.45
2018-12-01T11:02:55.592Z,95489.13
2018-12-01T11:05:19.533Z,95499.77
2018-12-01T11:07:46.458Z,95486.66
2018-12-01T11:10:13.375Z,95484.83
2018-12-01T11:12:40.291Z,95475.40
2018-12-01T11:15:07.263Z,95468.17
2018-12-01T11:17:34.168Z,95477.84
2018-12-01T11:20:01.139Z,95478.09
2018-12-01T11:22:28.053Z,95474.86
2018-12-01T11:24:54.955Z,95471.38
2018-12-01T11:27:21.879Z,95469.70
2018-12-01T11:29:48.789Z,95466.87
2018-12-01T11:32:15.711Z,95466.38
2018-12-01T11:34:42.666Z,95464.31
2018-12-01T11:37:09.580Z,95466.14
2018-12-01T11:39:36.495Z,95460.67
2018-12-01T11:42:03.457Z,95461.80
2018-12-01T11:44:30.414Z,95466.33
2018-12-01T11:46:57.346Z,95465.61
2018-12-01T11:49:24.250Z,95459.72
2018-12-01T11:51:51.165Z,95466.67
2018-12-01T11:54:18.125Z,95464.75
2018-12-01T11:56:45.026Z,95468.27
2018-12-01T11:59:11.980Z,95466.73
2018-12-01T12:01:38.902Z,95465.86
2018-12-01T12:04:05.805Z,95462.33
2018-12-01T12:06:32.733Z,95459.66
2018-12-01T12:08:59.629Z,95461.41
2018-12-01T12:11:26.538Z,95463.30
2018-12-01T12:13:53.459Z,95459.95
2018-12-01T12:16:20.362Z,95463.85
2018-12-01T12:18:47.334Z,95466.70
2018-12-01T12:21:14.241Z,95462.09
2018-12-01T12:23:41.153Z,95464.32
2018-12-01T12:26:08.090Z,95453.75
2018-12-01T12:28:34.999Z,95457.45
2018-12-01T12:31:01.953Z,95461.83
2018-12-01T12:33:28.864Z,95459.61
2018-12-01T12:35:55.820Z,95459.89
2018-12-01T12:38:22.714Z,95465.52
2018-12-01T12:40:49.674Z,95465.52
2018-12-01T12:43:16.546Z,95476.07
2018-12-01T12:45:43.450Z,95466.29
2018-12-01T12:48:10.378Z,95457.61
2018-12-01T12:50:37.307Z,95454.11
2018-12-01T12:53:04.231Z,95450.78
2018-12-01T12:55:31.162Z,95451.09
2018-12-01T12:57:58.073Z,95451.56
2018-12-01T13:00:24.992Z,95456.66
2018-12-01T13:02:51.926Z,95463.81
2018-12-01T13:05:18.836Z,95461.59
2018-12-01T13:07:45.759Z,95465.06
2018-12-01T13:10:12.678Z,95466.34
2018-12-01T13:12:39.589Z,95468.20
2018-12-01T13:15:06.509Z,95472.91
2018-12-01T13:17:33.412Z,95472.58
2018-12-01T13:20:00.330Z,95473.86
2018-12-01T13:22:27.254Z,95469.91
2018-12-01T13:24:54.163Z,95472.11
2018-12-01T13:27:21.088Z,95475.69
2018-12-01T13:29:48.012Z,95475.50
2018-12-01T13:32:14.920Z,95473.27
2018-12-01T13:34:41.845Z,95469.95
2018-12-01T13:37:08.765Z,95476.55
2018-12-01T13:39:35.669Z,95471.23
2018-12-01T13:42:02.595Z,95470.12
2018-12-01T13:44:29.514Z,95478.84
2018-12-01T13:46:56.428Z,95483.37
2018-12-01T13:49:23.339Z,95481.84
2018-12-01T13:51:50.253Z,95486.10
2018-12-01T13:54:17.175Z,95480.77
2018-12-01T13:56:44.089Z,95489.75
2018-12-01T13:59:11.039Z,95490.14
2018-12-01T14:01:37.960Z,95489.26
2018-12-01T14:04:04.864Z,95490.75
2018-12-01T14:06:31.840Z,95497.75
2018-12-01T14:08:58.759Z,95494.94
2018-12-01T14:11:25.661Z,95491.69
2018-12-01T14:13:52.585Z,95498.64
2018-12-01T14:16:19.496Z,95503.70
2018-12-01T14:18:46.396Z,95504.03
2018-12-01T14:21:13.413Z,95508.62
2018-12-01T14:23:40.363Z,95510.23
2018-12-01T14:26:07.253Z,95501.27
2018-12-01T14:28:34.176Z,95491.82
2018-12-01T14:31:01.092Z,95489.52
2018-12-01T14:33:28.103Z,95501.33
2018-12-01T14:35:54.975Z,95495.68
2018-12-01T14:38:21.877Z,95495.28
2018-12-01T14:40:48.803Z,95497.98
2018-12-01T14:43:15.709Z,95495.94
2018-12-01T14:45:42.673Z,95497.69
2018-12-01T14:48:09.541Z,95498.09
2018-12-01T14:50:36.452Z,95510.66
2018-12-01T14:53:03.370Z,95511.93
2018-12-01T14:55:30.335Z,95511.93
2018-12-01T14:57:57.212Z,95513.13
2018-12-01T15:00:24.139Z,95516.19
2018-12-01T15:02:51.047Z,95513.01
2018-12-01T15:05:17.979Z,95508.38
2018-12-01T15:07:44.949Z,95506.63
2018-12-01T15:10:11.843Z,95502.49
2018-12-01T15:12:38.769Z,95504.56
2018-12-01T15:15:05.690Z,95504.24
2018-12-01T15:17:32.603Z,95507.20
2018-12-01T15:19:59.518Z,95508.21
2018-12-01T15:22:26.434Z,95509.91
2018-12-01T15:24:53.366Z,95516.77
2018-12-01T15:27:20.299Z,95521.91
2018-12-01T15:29:47.217Z,95518.73
2018-12-01T15:32:14.149Z,95522.19
2018-12-01T15:34:41.112Z,95524.59
2018-12-01T15:37:08.050Z,95532.75
2018-12-01T15:39:35.025Z,95532.02
2018-12-01T15:42:01.943Z,95529.45
2018-12-01T15:44:28.872Z,95533.82
2018-12-01T15:46:55.806Z,95536.73
2018-12-01T15:49:22.730Z,95537.36
2018-12-01T15:51:49.664Z,95537.93
2018-12-01T15:54:16.582Z,95542.74
2018-12-01T15:56:43.504Z,95545.64
2018-12-01T15:59:10.437Z,95546.48
2018-12-01T16:01:37.364Z,95551.16
2018-12-01T16:04:04.302Z,95541.44
2018-12-01T16:06:31.234Z,95549.59
2018-12-01T16:08:58.153Z,95548.86
2018-12-01T16:11:25.075Z,95549.78
2018-12-01T16:13:52.004Z,95554.91
2018-12-01T16:16:19.267Z,95561.58
2018-12-01T16:18:46.207Z,95556.91
2018-12-01T16:21:13.157Z,95562.92
2018-12-01T16:23:40.073Z,95558.02
2018-12-01T16:26:07.003Z,95563.47
2018-12-01T16:28:33.922Z,95558.80
2018-12-01T16:31:00.904Z,95563.13
2018-12-01T16:33:27.817Z,95568.12
2018-12-01T16:35:54.739Z,95565.05
2018-12-01T16:38:21.682Z,95572.34
2018-12-01T16:40:48.600Z,95573.17
2018-12-01T16:43:15.530Z,95571.81
2018-12-01T16:45:42.465Z,95572.13
2018-12-01T16:48:09.399Z,95577.03
2018-12-01T16:50:36.320Z,95578.02
2018-12-01T16:53:03.251Z,95572.73
2018-12-01T16:55:30.173Z,95567.14
2018-12-01T16:57:57.114Z,95566.26
2018-12-01T17:00:24.033Z,95579.08
2018-12-01T17:02:51.013Z,95581.48
2018-12-01T17:05:17.948Z,95587.77
2018-12-01T17:07:44.868Z,95583.58
2018-12-01T17:10:11.795Z,95584.81
2018-12-01T17:12:38.710Z,95596.28
2018-12-01T17:15:05.634Z,95602.73
2018-12-01T17:17:32.634Z,95599.46
2018-12-01T17:19:59.552Z,95600.09
2018-12-01T17:22:26.479Z,95605.25
2018-12-01T17:24:53.399Z,95603.63
2018-12-01T17:27:20.365Z,95601.13
2018-12-01T17:29:47.304Z,95600.58
2018-12-01T17:32:14.219Z,95605.17
2018-12-01T17:34:41.132Z,95603.02
2018-12-01T17:37:08.101Z,95602.67
2018-12-01T17:39:35.090Z,95598.89
2018-12-01T17:42:02.023Z,95604.28
2018-12-01T17:44:28.943Z,95606.20
2018-12-01T17:46:55.868Z,95606.32
2018-12-01T17:49:22.796Z,95605.66
2018-12-01T17:51:49.722Z,95609.61
2018-12-01T17:54:16.654Z,95608.61
2018-12-01T17:56:43.582Z,95602.09
2018-12-01T17:59:10.517Z,95595.48
2018-12-01T18:01:37.434Z,95605.59
2018-12-01T18:04:04.347Z,95601.73
2018-12-01T18:06:31.277Z,95597.05
2018-12-01T18:08:58.187Z,95589.34
2018-12-01T18:11:29.517Z,95591.75
2018-12-01T18:13:52.046Z,95576.18
2018-12-01T18:16:18.958Z,95575.52
2018-12-01T18:18:45.893Z,95577.20
2018-12-01T18:21:12.818Z,95579.19
2018-12-01T18:23:39.738Z,95584.44
2018-12-01T18:26:06.676Z,95576.81
2018-12-01T18:28:33.664Z,95583.41
2018-12-01T18:31:00.598Z,95584.98
2018-12-01T18:33:27.530Z,95581.94
2018-12-01T18:35:54.450Z,95582.66
2018-12-01T18:38:21.381Z,95581.31
2018-12-01T18:40:48.298Z,95578.95
2018-12-01T18:43:15.213Z,95585.30
2018-12-01T18:45:42.139Z,95585.03
2018-12-01T18:48:09.062Z,95586.93
2018-12-01T18:50:36.002Z,95577.75
2018-12-01T18:53:02.935Z,95580.36
2018-12-01T18:55:29.856Z,95584.23
2018-12-01T18:57:56.789Z,95585.90
2018-12-01T19:00:23.741Z,95588.97
2018-12-01T19:02:50.663Z,95589.34
2018-12-01T19:05:17.633Z,95592.55
2018-12-01T19:07:44.534Z,95590.59
2018-12-01T19:10:11.455Z,95602.22
2018-12-01T19:12:38.376Z,95598.48
2018-12-01T19:15:05.312Z,95596.68
2018-12-01T19:17:32.253Z,95602.73
2018-12-01T19:19:59.199Z,95609.13
2018-12-01T19:22:26.119Z,95607.06
2018-12-01T19:24:53.048Z,95612.66
2018-12-01T19:27:19.982Z,95607.47
2018-12-01T19:29:46.918Z,95610.48
2018-12-01T19:32:13.852Z,95610.67
2018-12-01T19:34:40.768Z,95626.70
2018-12-01T19:37:07.700Z,95623.75
2018-12-01T19:39:34.621Z,95619.11
2018-12-01T19:42:01.554Z,95620.14
2018-12-01T19:44:28.485Z,95628.91
2018-12-01T19:46:55.400Z,95623.16
2018-12-01T19:49:22.330Z,95619.99
2018-12-01T19:51:49.273Z,95618.05
2018-12-01T19:54:16.187Z,95616.01
2018-12-01T19:56:43.121Z,95624.13
2018-12-01T19:59:10.042Z,95621.77
2018-12-01T20:01:36.956Z,95615.84
2018-12-01T20:04:03.904Z,95618.33
2018-12-01T20:06:30.833Z,95623.03
2018-12-01T20:08:57.765Z,95615.80
2018-12-01T20:11:24.743Z,95613.02
2018-12-01T20:13:51.615Z,95616.00
2018-12-01T20:16:18.517Z,95608.17
2018-12-01T20:18:45.447Z,95609.29
2018-12-01T20:21:12.376Z,95604.50
2018-12-01T20:23:39.311Z,95603.47
2018-12-01T20:26:06.274Z,95604.68
2018-12-01T20:28:33.171Z,95604.05
2018-12-01T20:31:00.080Z,95603.33
2018-12-01T20:33:27.013Z,95606.97
2018-12-01T20:35:53.930Z,95608.86
2018-12-01T20:38:20.840Z,95613.16
2018-12-01T20:40:47.799Z,95614.83
2018-12-01T20:43:14.702Z,95611.56
2018-12-01T20:45:41.639Z,95613.88
2018-12-01T20:48:08.545Z,95619.02
2018-12-01T20:50:35.495Z,95615.06
2018-12-01T20:53:02.410Z,95618.87
2018-12-01T20:55:29.379Z,95622.20
2018-12-01T20:57:56.294Z,95616.57
2018-12-01T21:00:23.254Z,95620.22
2018-12-01T21:02:50.163Z,95619.56
2018-12-01T21:05:17.092Z,95619.16
2018-12-01T21:07:43.994Z,95610.01
2018-12-01T21:10:10.946Z,95619.27
2018-12-01T21:12:37.869Z,95615.92
2018-12-01T21:15:04.774Z,95617.34
2018-12-01T21:17:31.691Z,95610.89
2018-12-01T21:19:58.612Z,95617.94
2018-12-01T21:22:25.508Z,95618.61
2018-12-01T21:24:52.427Z,95619.95
2018-12-01T21:27:19.347Z,95625.03
2018-12-01T21:29:46.262Z,95626.11
2018-12-01T21:32:13.184Z,95627.41
2018-12-01T21:34:40.099Z,95627.35
2018-12-01T21:37:07.030Z,95627.93
2018-12-01T21:39:33.949Z,95635.06
2018-12-01T21:42:00.864Z,95634.31
2018-12-01T21:44:27.789Z,95645.09
2018-12-01T21:46:54.703Z,95643.75
2018-12-01T21:49:21.655Z,95640.39
2018-12-01T21:51:48.573Z,95638.50
2018-12-01T21:54:15.534Z,95637.64
2018-12-01T21:56:42.449Z,95639.80
2018-12-01T21:59:09.370Z,95641.95
2018-12-01T22:01:36.272Z,95638.30
2018-12-01T22:04:03.189Z,95649.20
2018-12-01T22:06:30.100Z,95648.37
2018-12-01T22:08:57.012Z,95647.86
2018-12-01T22:11:23.936Z,95650.95
2018-12-01T22:13:50.844Z,95653.25
2018-12-01T22:16:17.763Z,95642.98
2018-12-01T22:18:44.673Z,95643.81
2018-12-01T22:21:11.588Z,95643.41
2018-12-01T22:23:38.510Z,95642.27
2018-12-01T22:26:05.406Z,95648.61
2018-12-01T22:28:35.362Z,95650.27
2018-12-01T22:30:59.248Z,95647.02
2018-12-01T22:33:26.168Z,95640.59
2018-12-01T22:35:53.094Z,95646.09
2018-12-01T22:38:20.029Z,95643.34
2018-12-01T22:40:46.971Z,95641.28
2018-12-01T22:43:13.937Z,95643.34
2018-12-01T22:45:40.834Z,95641.80
2018-12-01T22:48:07.750Z,95641.05
2018-12-01T22:50:34.669Z,95643.73
2018-12-01T22:53:01.624Z,95640.09
2018-12-01T22:55:28.533Z,95638.66
2018-12-01T22:57:55.441Z,95640.70
2018-12-01T23:00:22.403Z,95637.20
2018-12-01T23:02:49.303Z,95642.64
2018-12-01T23:05:17.046Z,95639.13
2018-12-01T23:07:43.142Z,95634.96
2018-12-01T23:10:10.057Z,95637.66
2018-12-01T23:12:36.977Z,95638.30
2018-12-01T23:15:03.887Z,95637.42
2018-12-01T23:17:30.792Z,95639.14
2018-12-01T23:19:57.748Z,95632.46
2018-12-01T23:22:24.644Z,95634.55
2018-12-01T23:24:51.569Z,95636.36
2018-12-01T23:27:18.490Z,95641.61
2018-12-01T23:29:45.404Z,95637.30
2018-12-01T23:32:12.330Z,95641.30
2018-12-01T23:34:39.243Z,95646.33
2018-12-01T23:37:06.150Z,95644.44
2018-12-01T23:39:33.077Z,95641.89
2018-12-01T23:41:59.981Z,95633.09
2018-12-01T23:44:26.901Z,95634.37
2018-12-01T23:46:53.825Z,95635.16
2018-12-01T23:49:20.734Z,95631.38
2018-12-01T23:51:47.659Z,95630.57
2018-12-01T23:54:14.565Z,95632.32
2018-12-01T23:56:41.475Z,95623.83
2018-12-01T23:59:08.395Z,95626.44
